Tiempo atmosférico en la estación meteorológica de Irún, Gipuzkoa (120 m.)



Fecha
DESCASC
Temp. máxima en grados centígrados (hora)
DESCASC
Temp. mínima en grados centígrados (hora)
DESCASC
Temp. media en grados centígrados
DESCASC
Racha de viento máxima en m/sg (hora)
DESCASC
Velocidad máxima media en intervalos de 10 minutos(hora)
DESCASC
Precipitaciones diarias en mm
DESCASC
Precipitaciones de 00:00 a 06:00 en mm
DESCASC
Precipitaciones de 06:00 a 12:00 en mm
DESCASC
Precipitaciones de 12:00 a 18:00 en mm
DESCASC
Precipitaciones de 18:00 a 24:00 en mm
DESCASC
14-12-2019 18.6 (14:40) 12.9 (06:40) 15.8 10 (03:20) 4.17 (02:50) 0 0 0 0 0
13-12-2019 14.7 (07:40) 13.4 (17:20) 14 26.11 (04:10) 10.56 (06:40) 4.8 2.4 0 2.4 0
12-12-2019 13.7 (23:59) 8.3 (00:00) 11 20.83 (21:50) 7.78 (21:40) 36.6 15 1.4 6 14.2
11-12-2019 12.9 (07:40) 8.1 (00:00) 10.5 15.56 (19:20) 6.67 (19:20) 53.6 0 23 5 25.6
10-12-2019 13.9 (15:00) 7.7 (00:00) 10.8 5.56 (00:10) 3.06 (00:10) 0 0 0 0 0
09-12-2019 12.6 (14:30) 10 (00:00) 11.3 17.78 (06:30) 7.78 (07:50) 12.2 0.2 7.8 3.4 0.8
08-12-2019 12.8 (11:50) 9.8 (00:00) 11.3 13.61 (17:50) 4.44 (17:40) 5.2 0 0 5.2 0
07-12-2019 15.4 (14:20) 8.6 (00:00) 12 3.89 (01:30) 2.22 (03:00) 0 0 0 0 0
06-12-2019 13.3 (14:20) 6 (00:00) 9.7 6.11 (19:00) 3.06 (19:00) 0 0 0 0 0
05-12-2019 13.1 (14:40) 7.3 (00:00) 10.2 4.17 (22:00) 2.22 (22:00) 0 0 0 0 0
04-12-2019 9.2 (17:30) 1.8 (00:00) 5.5 6.67 (20:50) 2.78 (22:40) 0 0 0 0 0
03-12-2019 6.4 (16:20) 2.6 (00:00) 4.5 2.22 (02:30) 1.11 (19:00) 0.2 0 0.2 0 0
02-12-2019 9 (00:00) 5 (00:00) 7 6.39 (12:40) 3.06 (14:10) 3.6 0.4 1.2 1.6 0.4
01-12-2019 14.2 (14:00) 7.7 (00:00) 10.9 3.89 (15:20) 2.22 (15:20) 0 0 0 0 0
30-11-2019 17.3 (06:50) 8.9 (00:00) 13.1 9.72 (12:00) 3.61 (11:50) 13.2 0 0.6 12 0.6
29-11-2019 16.1 (14:00) 10.4 (00:00) 13.3 7.78 (03:20) 2.78 (02:40) 0.8 0.8 0 0 0
28-11-2019 14 (13:30) 9.9 (00:00) 11.9 7.78 (08:00) 3.06 (09:20) 6.8 0.4 0.6 4.2 1.6
27-11-2019 16.7 (13:40) 11.8 (00:00) 14.3 10.28 (17:50) 4.17 (17:50) 1.8 0 0 1 0.8
26-11-2019 20.2 (12:40) 11 (00:00) 15.6 13.33 (19:40) 5.28 (13:20) 0 0 0 0 0
25-11-2019 17.2 (13:00) 10 (00:00) 13.6 6.39 (13:10) 3.06 (13:10) 0.2 0 0.2 0 0
24-11-2019 13.1 (14:00) 8.8 (00:00) 11 14.72 (01:20) 5.28 (01:30) 33 12.8 17.4 0 2.8
23-11-2019 15.4 (00:00) 8.5 (00:00) 11.9 26.94 (10:10) 10 (11:40) 43.6 1 21.8 2 18.8
22-11-2019 15.9 (16:40) 11 (00:00) 13.4 20 (14:20) 6.67 (17:50) 0 0 0 0 0
21-11-2019 14.1 (14:10) 10.4 (00:00) 12.3 8.33 (00:30) 3.33 (13:00) 0 0 0 0 0
20-11-2019 13.9 (14:50) 6.3 (00:00) 10.1 8.89 (23:59) 3.06 (23:59) 0 0 0 0 0
19-11-2019 10.5 (14:30) 4.8 (00:00) 7.7 3.06 (01:20) 1.67 (20:00) 0.8 0.8 0 0 0
18-11-2019 9.2 (14:50) 4.9 (00:00) 7 6.39 (01:00) 2.78 (01:00) 5.6 5 0.6 0 0
17-11-2019 9.9 (15:10) 7.7 (00:00) 8.8 10.28 (00:50) 4.17 (00:10) 27.8 0.2 1.4 8.2 18
16-11-2019 8.3 (22:10) 5.2 (00:00) 6.8 14.17 (11:40) 5.28 (17:00) 28 0.4 7.8 15.8 4

Gráficas

Temp. máximas Temp. mínimas Temp. medias Precipitaciones Rachas de viento máximas Velocidades máximas media en intervalos de 10 minutos

Datos horarios

Fecha y hora oficial Temperatura (ºC) Velocidad del viento (km/h) Dirección del viento Racha (km/h) Dirección de racha Precipitación (mm) Presión (hPa) Tendencia (hPa) Humedad (%)
2019-12-15 23:00:00 15.4 9 Sudoeste 36 Sur 0 -- -- 51
2019-12-15 22:00:00 15.7 14 Sur 39 Sudeste 0 -- -- 51
2019-12-15 21:00:00 15.3 8 Sudeste 22 Sur 0 -- -- 54
2019-12-15 20:00:00 15.7 6 Sur 21 Sur 0 -- -- 51
2019-12-15 19:00:00 16.2 4 Este 35 Sur 0 -- -- 49
2019-12-15 18:00:00 16.8 10 Sur 32 Sur 0 -- -- 48
2019-12-15 17:00:00 17.1 9 Sudoeste 36 Oeste 0 -- -- 48
2019-12-15 16:00:00 17.5 9 Sur 26 Sur 0 -- -- 46
2019-12-15 15:00:00 18 8 Sur 32 Sur 0 -- -- 46
2019-12-15 14:00:00 19.2 6 Sudoeste 38 Sudoeste 0 -- -- 42
2019-12-15 13:00:00 18.2 9 Sudoeste 30 Oeste 0 -- -- 42
2019-12-15 12:00:00 18 6 Sudoeste 34 Sudoeste 0 -- -- 44
2019-12-15 11:00:00 17.2 12 Sudoeste 29 Sudoeste 0 -- -- 46
2019-12-15 10:00:00 16.1 6 Sudoeste 28 Sudoeste 0 -- -- 50
2019-12-15 09:00:00 16.2 12 Sudoeste 32 Sudoeste 0 -- -- 49
2019-12-15 08:00:00 16 12 Sudoeste 30 Sur 0 -- -- 50
2019-12-15 07:00:00 15.6 7 Sudoeste 35 Sudoeste 0 -- -- 52
2019-12-15 06:00:00 16 15 Sudoeste 31 Oeste 0 -- -- 52
2019-12-15 05:00:00 16.1 13 Sudoeste 34 Oeste 0 -- -- 52
2019-12-15 04:00:00 16.2 16 Sudoeste 40 Sudoeste 0 -- -- 52
2019-12-15 03:00:00 16.3 15 Sudoeste 45 Oeste 0 -- -- 52
2019-12-15 02:00:00 16.3 10 Sudoeste 35 Sudoeste 0 -- -- 52
2019-12-15 01:00:00 16.3 20 Oeste 41 Oeste 0 -- -- 52
2019-12-15 00:00:00 15.8 11 Sudoeste 24 Sudoeste 0 -- -- 53
2019-12-14 23:00:00 15.4 7 Sudoeste 18 Oeste 0 -- -- 55
2019-12-14 22:00:00 15.6 4 Sur 23 Sudoeste 0 -- -- 55
2019-12-14 21:00:00 15.9 8 Sudoeste 27 Sudoeste 0 -- -- 55
2019-12-14 20:00:00 15.8 9 Sudoeste 31 Oeste 0 -- -- 55
2019-12-14 19:00:00 15.7 14 Sudoeste 34 Sudoeste 0 -- -- 53
2019-12-14 18:00:00 15.7 5 Sudoeste 24 Sudoeste 0 -- -- 55
2019-12-14 17:00:00 16.4 9 Sudoeste 29 Sudoeste 0 -- -- 54
2019-12-14 16:00:00 17.4 10 Sudoeste 23 Sur 0 -- -- 52
2019-12-14 15:00:00 18.3 9 Oeste 25 Sudoeste 0 -- -- 51
2019-12-14 14:00:00 18.3 6 Sudoeste 23 Sudoeste 0 -- -- 51
2019-12-14 13:00:00 17.7 9 Sudoeste 22 Oeste 0 -- -- 54
2019-12-14 12:00:00 16.1 6 Sudoeste 20 Oeste 0 -- -- 59
2019-12-14 11:00:00 14.4 8 Oeste 20 Sudoeste 0 -- -- 69
2019-12-14 10:00:00 13.4 7 Oeste 16 Oeste 0 -- -- 72
2019-12-14 09:00:00 12.9 6 Oeste 23 Sudoeste 0 -- -- 75
2019-12-14 08:00:00 13.9 7 Oeste 20 Sudoeste 0 -- -- 70
2019-12-14 07:00:00 13.1 8 Oeste 16 Sudoeste 0 -- -- 75
2019-12-14 06:00:00 14 7 Sudoeste 26 Sudoeste 0 -- -- 69
2019-12-14 05:00:00 14.8 10 Sudoeste 31 Sudoeste 0 -- -- 67
2019-12-14 04:00:00 14.8 14 Sudoeste 36 Sudoeste 0 -- -- 67
2019-12-14 03:00:00 14.4 14 Sudoeste 32 Sudoeste 0 -- -- 72
2019-12-14 02:00:00 13.8 11 Sudoeste 23 Oeste 0 -- -- 76
2019-12-14 01:00:00 13 3 Sudoeste 21 Oeste 0 -- -- 81
2019-12-14 00:00:00 13.6 8 Sudoeste 30 Sudoeste 0 -- -- 78
2019-12-13 23:00:00 13.9 14 Oeste 53 Sudoeste 0 -- -- 76
2019-12-13 22:00:00 14 17 Oeste 48 Noroeste 0 -- -- 79
2019-12-13 21:00:00 14 17 Oeste 52 Oeste 0 -- -- 80
2019-12-13 20:00:00 14 20 Oeste 51 Oeste 0 -- -- 86
2019-12-13 19:00:00 14.1 18 Oeste 57 Oeste 0 -- -- 88
2019-12-13 18:00:00 13.4 20 Oeste 65 Oeste 1.2 -- -- 95
2019-12-13 17:00:00 13.5 26 Oeste 73 Oeste 1.2 -- -- 94
2019-12-13 16:00:00 14.5 28 Oeste 79 Oeste 0 -- -- 86
2019-12-13 15:00:00 14.5 26 Oeste 73 Oeste 0 -- -- 87
2019-12-13 14:00:00 14.4 22 Oeste 72 Oeste 0 -- -- 87
2019-12-13 13:00:00 14.5 20 Oeste 82 Noroeste 0 -- -- 87
2019-12-13 12:00:00 14.5 33 Oeste 75 Oeste 0 -- -- 87
2019-12-13 11:00:00 14.3 28 Oeste 71 Oeste 0 -- -- 89
2019-12-13 10:00:00 14.4 36 Oeste 84 Oeste 0 -- -- 87
2019-12-13 09:00:00 14.6 25 Oeste 70 Oeste 0 -- -- 85
2019-12-13 08:00:00 14.5 28 Oeste 93 Oeste 0 -- -- 86
2019-12-13 07:00:00 14.5 29 Oeste 84 Oeste 0 -- -- 86
2019-12-13 06:00:00 14.6 36 Oeste 94 Sudoeste 0 -- -- 86
2019-12-13 05:00:00 14.2 27 Oeste 94 Oeste 0.4 -- -- 90
2019-12-13 04:00:00 14.4 28 Oeste 69 Oeste 0.2 -- -- 89
2019-12-13 03:00:00 14.3 28 Oeste 75 Oeste 0.6 -- -- 90
2019-12-13 02:00:00 13.8 24 Oeste 68 Oeste 0.6 -- -- 93
2019-12-13 01:00:00 13.8 21 Oeste 77 Noroeste 0.6 -- -- 95
2019-12-13 00:00:00 13.7 28 Oeste 69 Oeste 1.2 -- -- 96
2019-12-12 23:00:00 13.4 20 Oeste 59 Oeste 4.2 -- -- 96
2019-12-12 22:00:00 13.3 17 Oeste 75 Sudoeste 2.4 -- -- 96
2019-12-12 21:00:00 13.2 18 Oeste 62 Oeste 1 -- -- 95
2019-12-12 20:00:00 12.3 22 Oeste 60 Sudoeste 3.6 -- -- 95
2019-12-12 19:00:00 11 17 Sudoeste 42 Oeste 1.8 -- -- 91
2019-12-12 18:00:00 11.1 16 Sudoeste 46 Oeste 1.6 -- -- 87
2019-12-12 17:00:00 11.2 21 Sudoeste 44 Sudoeste 1.2 -- -- 83
2019-12-12 16:00:00 11.2 16 Sudoeste 48 Oeste 0.6 -- -- 80
2019-12-12 15:00:00 10.5 13 Sudoeste 35 Sudoeste 1 -- -- 79
2019-12-12 14:00:00 10 12 Sudoeste 32 Oeste 1.6 -- -- 82
2019-12-12 13:00:00 10.9 13 Sudoeste 34 Sudoeste 0 -- -- 73
2019-12-12 12:00:00 10.6 8 Sudoeste 31 Oeste 0 -- -- 74
2019-12-12 11:00:00 10.3 11 Sudoeste 29 Oeste 0 -- -- 76
2019-12-12 10:00:00 9.7 9 Sudoeste 24 Sudoeste 0 -- -- 79
2019-12-12 09:00:00 8.9 9 Oeste 28 Sudoeste 0.6 -- -- 84
2019-12-12 08:00:00 9 10 Sudoeste 28 Sudoeste 0.2 -- -- 84
2019-12-12 07:00:00 8.8 12 Sudoeste 28 Sudoeste 0.6 -- -- 86
2019-12-12 06:00:00 8.5 13 Sudoeste 35 Oeste 0.8 -- -- 89
2019-12-12 05:00:00 8.4 13 Sudoeste 37 Oeste 5.2 -- -- 91
2019-12-12 04:00:00 8.8 11 Sudoeste 49 Sudoeste 1.6 -- -- 89
2019-12-12 03:00:00 8.7 19 Sudoeste 41 Sudoeste 0.8 -- -- 93
2019-12-12 02:00:00 8.5 16 Sudoeste 40 Oeste 5.2 -- -- 94
2019-12-12 01:00:00 8.7 14 Sudoeste 39 Sudoeste 1.4 -- -- 94
2019-12-12 00:00:00 8.3 13 Sudoeste 30 Oeste 8 -- -- 95
2019-12-11 23:00:00 8.6 9 Oeste 37 Sudoeste 6 -- -- 93
2019-12-11 22:00:00 8.6 16 Sudoeste 37 Sudoeste 1.6 -- -- 91
2019-12-11 21:00:00 8.7 19 Sudoeste 46 Oeste 1.2 -- -- 90
2019-12-11 20:00:00 8.6 13 Oeste 56 Oeste 5.2 -- -- 90
2019-12-11 19:00:00 8.8 18 Oeste 47 Oeste 3.6 -- -- 87
2019-12-11 18:00:00 10.5 15 Sudoeste 38 Sudoeste 0 -- -- 63
2019-12-11 17:00:00 10.1 13 Sudoeste 37 Sudoeste 0 -- -- 73
2019-12-11 16:00:00 8.9 9 Oeste 28 Sudoeste 1.8 -- -- 87
2019-12-11 15:00:00 8.8 10 Sudoeste 37 Noroeste 2.8 -- -- 86
2019-12-11 14:00:00 9.5 13 Sudoeste 40 Oeste 0.4 -- -- 83
2019-12-11 13:00:00 9.5 14 Sudoeste 33 Oeste 0 -- -- 86
2019-12-11 12:00:00 8.9 12 Sudoeste 48 Oeste 0.6 -- -- 86
2019-12-11 11:00:00 9.4 14 Oeste 40 Oeste 5.6 -- -- 87
2019-12-11 10:00:00 10 17 Oeste 47 Sudoeste 10.4 -- -- 92
2019-12-11 09:00:00 11.1 8 Noroeste 36 Sudoeste 5.8 -- -- 91
2019-12-11 08:00:00 12.1 10 Sudoeste 35 Noroeste 0.6 -- -- 76
2019-12-11 07:00:00 12.7 10 Sudoeste 26 Oeste 0 -- -- 59
2019-12-11 06:00:00 11.7 6 Oeste 15 Sudoeste 0 -- -- 59
2019-12-11 05:00:00 11.4 2 Sudeste 14 Oeste 0 -- -- 56
2019-12-11 04:00:00 12 4 Oeste 9 Oeste 0 -- -- 51
2019-12-11 03:00:00 11.4 7 Oeste 10 Oeste 0 -- -- 56
2019-12-11 02:00:00 12.1 0 Calma 8 Oeste 0 -- -- 51
2019-12-11 01:00:00 11.7 6 Oeste 9 Oeste 0 -- -- 57
2019-12-11 00:00:00 11.5 6 Sudoeste 11 Oeste 0 -- -- 58
2019-12-10 23:00:00 11.8 2 Sudeste 5 Oeste 0 -- -- 58
2019-12-10 22:00:00 11.5 2 Sur 8 Oeste 0 -- -- 65
2019-12-10 21:00:00 11.3 4 Oeste 6 Oeste 0 -- -- 66
2019-12-10 20:00:00 11.5 5 Oeste 8 Oeste 0 -- -- 73
2019-12-10 19:00:00 11.4 0 Calma 6 Noroeste 0 -- -- 73
2019-12-10 18:00:00 11.9 2 Oeste 5 Oeste 0 -- -- 73
2019-12-10 17:00:00 13 0 Calma 3 Oeste 0 -- -- 70
2019-12-10 16:00:00 13.6 0 Calma 6 Noroeste 0 -- -- 68
2019-12-10 15:00:00 13.9 2 Norte 6 Nordeste 0 -- -- 67
2019-12-10 14:00:00 13.6 0 Calma 6 Oeste 0 -- -- 67
2019-12-10 13:00:00 12.9 3 Norte 11 Sudoeste 0 -- -- 70
2019-12-10 12:00:00 11.6 3 Sudeste 8 Nordeste 0 -- -- 74
2019-12-10 11:00:00 9.3 0 Calma 8 Oeste 0 -- -- 88
2019-12-10 10:00:00 8.2 0 Calma 4 Oeste 0 -- -- 90
2019-12-10 09:00:00 7.8 0 Calma 9 Oeste 0 -- -- 89
2019-12-10 08:00:00 8.7 2 Sudoeste 6 Noroeste 0 -- -- 86
2019-12-10 07:00:00 8.9 2 Sudeste 8 Norte 0 -- -- 85
2019-12-10 06:00:00 8.9 2 Oeste 5 Noroeste 0 -- -- 87
2019-12-10 05:00:00 9.4 2 Sudeste 12 Oeste 0 -- -- 84
2019-12-10 04:00:00 10.3 3 Oeste 15 Noroeste 0 -- -- 81
2019-12-10 03:00:00 10.5 5 Oeste 12 Oeste 0 -- -- 85
2019-12-10 02:00:00 10.3 4 Oeste 9 Sudoeste 0 -- -- 84
2019-12-10 01:00:00 10.1 5 Oeste 20 Noroeste 0 -- -- 87
2019-12-10 00:00:00 10.8 8 Noroeste 19 Noroeste 0 -- -- 76
2019-12-09 23:00:00 11.1 10 Noroeste 24 Noroeste 0 -- -- 82
2019-12-09 22:00:00 10.6 5 Oeste 22 Sudoeste 0 -- -- 87
2019-12-09 21:00:00 10.8 9 Noroeste 30 Sudoeste 0 -- -- 85
2019-12-09 20:00:00 10.3 9 Oeste 41 Oeste 0.2 -- -- 90
2019-12-09 19:00:00 10.8 15 Noroeste 34 Oeste 0.6 -- -- 87
2019-12-09 18:00:00 10 11 Oeste 48 Noroeste 1.2 -- -- 91
2019-12-09 17:00:00 10.7 10 Noroeste 45 Noroeste 0.4 -- -- 86
2019-12-09 16:00:00 11 19 Oeste 47 Norte 1.2 -- -- 82
2019-12-09 15:00:00 11.9 17 Noroeste 47 Oeste 0 -- -- 77
2019-12-09 14:00:00 12.4 21 Oeste 49 Oeste 0.2 -- -- 72
2019-12-09 13:00:00 12.1 21 Oeste 59 Oeste 0.4 -- -- 77
2019-12-09 12:00:00 11.5 14 Noroeste 45 Sudoeste 0.2 -- -- 84
2019-12-09 11:00:00 12.1 21 Noroeste 54 Noroeste 0.2 -- -- 80
2019-12-09 10:00:00 10.9 23 Oeste 59 Oeste 4.2 -- -- 91
2019-12-09 09:00:00 11.6 18 Oeste 55 Oeste 0 -- -- 87
2019-12-09 08:00:00 11.2 20 Oeste 64 Oeste 3 -- -- 90
2019-12-09 07:00:00 11.8 21 Oeste 64 Oeste 0.2 -- -- 82
2019-12-09 06:00:00 11.3 15 Oeste 47 Oeste 0.2 -- -- 86
2019-12-09 05:00:00 11.9 17 Oeste 44 Oeste 0 -- -- 78
2019-12-09 04:00:00 11.2 10 Oeste 40 Sudoeste 0 -- -- 80
2019-12-09 03:00:00 11.8 14 Sudoeste 35 Sudoeste 0 -- -- 75
2019-12-09 02:00:00 12 14 Sudoeste 33 Sudoeste 0 -- -- 76
2019-12-09 01:00:00 11.8 9 Oeste 29 Sudoeste 0 -- -- 79
2019-12-09 00:00:00 11.9 9 Sudoeste 23 Oeste 0 -- -- 79
2019-12-08 23:00:00 11.9 8 Sudoeste 26 Sudoeste 0 -- -- 80
2019-12-08 22:00:00 11.9 6 Sudoeste 24 Sudoeste 0 -- -- 80
2019-12-08 21:00:00 11.6 5 Sudoeste 36 Noroeste 0 -- -- 85
2019-12-08 20:00:00 11.8 7 Oeste 26 Oeste 0 -- -- 88
2019-12-08 19:00:00 12 11 Oeste 36 Oeste 0 -- -- 86
2019-12-08 18:00:00 12.8 12 Oeste 49 Noroeste 1 -- -- 96
2019-12-08 17:00:00 12.7 13 Sudoeste 36 Sudoeste 0.2 -- -- 96
2019-12-08 16:00:00 12.3 10 Sudoeste 26 Sudoeste 0.8 -- -- 95
2019-12-08 15:00:00 12.2 7 Oeste 19 Oeste 1.8 -- -- 92
2019-12-08 14:00:00 12.7 10 Sudoeste 23 Sudoeste 1 -- -- 91
2019-12-08 13:00:00 12.2 8 Oeste 16 Sudoeste 0.4 -- -- 88
2019-12-08 12:00:00 12.8 7 Oeste 14 Oeste 0 -- -- 77
2019-12-08 11:00:00 12.5 3 Sur 17 Oeste 0 -- -- 77
2019-12-08 10:00:00 12.3 7 Oeste 14 Oeste 0 -- -- 76
2019-12-08 09:00:00 12.1 7 Sudoeste 18 Sudoeste 0 -- -- 74
2019-12-08 08:00:00 11.4 6 Sudoeste 13 Sudoeste 0 -- -- 77
2019-12-08 07:00:00 10.2 3 Sur 10 Oeste 0 -- -- 86
2019-12-08 06:00:00 9.9 0 Calma 8 Noroeste 0 -- -- 88
2019-12-08 05:00:00 10.2 4 Oeste 8 Oeste 0 -- -- 87
2019-12-08 04:00:00 9.9 5 Noroeste 8 Oeste 0 -- -- 86
2019-12-08 03:00:00 10.5 0 Calma 5 Oeste 0 -- -- 86
2019-12-08 02:00:00 11.1 0 Calma 6 Oeste 0 -- -- 82
2019-12-08 01:00:00 11.4 3 Oeste 6 Oeste 0 -- -- 79
2019-12-08 00:00:00 11.4 3 Noroeste 5 Oeste 0 -- -- 80
2019-12-07 23:00:00 11.4 0 Calma 8 Oeste 0 -- -- 79
2019-12-07 22:00:00 11.9 0 Calma 6 Noroeste 0 -- -- 73
2019-12-07 21:00:00 12.1 3 Oeste 7 Noroeste 0 -- -- 74
2019-12-07 20:00:00 12.6 0 Calma 4 Oeste 0 -- -- 72
2019-12-07 19:00:00 13.1 0 Calma 2 Sudeste 0 -- -- 69
2019-12-07 18:00:00 13.8 0 Calma 5 Nordeste 0 -- -- 69
2019-12-07 17:00:00 14.4 2 Norte 10 Noroeste 0 -- -- 66
2019-12-07 16:00:00 15 2 Noroeste 11 Oeste 0 -- -- 66
2019-12-07 15:00:00 15.3 4 Oeste 10 Sudoeste 0 -- -- 64
2019-12-07 14:00:00 15.3 5 Oeste 12 Noroeste 0 -- -- 64
2019-12-07 13:00:00 13.9 2 Noroeste 5 Noroeste 0 -- -- 76
2019-12-07 12:00:00 11.7 0 Calma 5 Oeste 0 -- -- 88
2019-12-07 11:00:00 10.1 0 Calma 6 Oeste 0 -- -- 90
2019-12-07 10:00:00 9.7 2 Sudoeste 5 Oeste 0 -- -- 88
2019-12-07 09:00:00 8.7 4 Oeste 5 Oeste 0 -- -- 88
2019-12-07 08:00:00 8.8 0 Calma 4 Norte 0 -- -- 86
2019-12-07 07:00:00 9.1 0 Calma 5 Norte 0 -- -- 85
2019-12-07 06:00:00 9.3 2 Noroeste 4 Norte 0 -- -- 85
2019-12-07 05:00:00 9.6 3 Norte 5 Sudoeste 0 -- -- 85
2019-12-07 04:00:00 9.4 3 Oeste 9 Oeste 0 -- -- 88
2019-12-07 03:00:00 10 8 Oeste 14 Sudoeste 0 -- -- 84
2019-12-07 02:00:00 11.5 6 Sudoeste 14 Sudoeste 0 -- -- 81
2019-12-07 01:00:00 11.8 6 Sudoeste 13 Sur 0 -- -- 81
2019-12-07 00:00:00 11.6 6 Sudoeste 14 Sudoeste 0 -- -- 83
2019-12-06 23:00:00 10.1 2 Sudeste 15 Sur 0 -- -- 88
2019-12-06 22:00:00 11 5 Sudoeste 16 Sur 0 -- -- 86
2019-12-06 21:00:00 10 2 Noroeste 19 Oeste 0 -- -- 88
2019-12-06 20:00:00 11.1 11 Sudoeste 22 Sudoeste 0 -- -- 83
2019-12-06 19:00:00 11.4 11 Sudoeste 22 Sur 0 -- -- 79
2019-12-06 18:00:00 11.1 0 Calma 3 Oeste 0 -- -- 81
2019-12-06 17:00:00 11.9 0 Calma 6 Noroeste 0 -- -- 80
2019-12-06 16:00:00 12.9 0 Calma 6 Nordeste 0 -- -- 79
2019-12-06 15:00:00 13.1 3 Nordeste 8 Norte 0 -- -- 77
2019-12-06 14:00:00 13.1 3 Este 10 Norte 0 -- -- 76
2019-12-06 13:00:00 12.8 3 Noroeste 7 Noroeste 0 -- -- 75
2019-12-06 12:00:00 9.7 0 Calma 6 Oeste 0 -- -- 91
2019-12-06 11:00:00 8.2 2 Noroeste 6 Oeste 0 -- -- 95
2019-12-06 10:00:00 6.4 4 Oeste 6 Oeste 0 -- -- 96
2019-12-06 09:00:00 6.1 2 Sudoeste 6 Oeste 0 -- -- 95
2019-12-06 08:00:00 6.2 0 Calma 5 Noroeste 0 -- -- 94
2019-12-06 07:00:00 6.7 3 Sudoeste 5 Oeste 0 -- -- 94
2019-12-06 06:00:00 7 2 Sudoeste 3 Sudoeste 0 -- -- 92
2019-12-06 05:00:00 7.4 3 Sudoeste 8 Oeste 0 -- -- 92
2019-12-06 04:00:00 7.6 0 Calma 9 Oeste 0 -- -- 92
2019-12-06 03:00:00 7.4 4 Sudoeste 9 Sudoeste 0 -- -- 91
2019-12-06 02:00:00 7.9 4 Oeste 9 Oeste 0 -- -- 90
2019-12-06 01:00:00 8.1 3 Oeste 8 Noroeste 0 -- -- 89
2019-12-06 00:00:00 8.7 0 Calma 8 Sur 0 -- -- 88
2019-12-05 23:00:00 9.8 3 Sur 13 Sudoeste 0 -- -- 84
2019-12-05 22:00:00 10.1 8 Sudoeste 15 Sudoeste 0 -- -- 87
2019-12-05 21:00:00 10 5 Sudoeste 13 Sur 0 -- -- 88
2019-12-05 20:00:00 9.9 4 Sudoeste 11 Sudoeste 0 -- -- 91
2019-12-05 19:00:00 10.5 2 Oeste 14 Sudoeste 0 -- -- 90
2019-12-05 18:00:00 10.9 4 Sudoeste 11 Sudoeste 0 -- -- 86
2019-12-05 17:00:00 11.7 0 Calma 6 Sudoeste 0 -- -- 79
2019-12-05 16:00:00 12.4 0 Calma 7 Noroeste 0 -- -- 78
2019-12-05 15:00:00 12.6 4 Norte 8 Noroeste 0 -- -- 78
2019-12-05 14:00:00 12.2 0 Calma 6 Norte 0 -- -- 78
2019-12-05 13:00:00 12 0 Calma 6 Noroeste 0 -- -- 77
2019-12-05 12:00:00 10.9 3 Norte 6 Noroeste 0 -- -- 83
2019-12-05 11:00:00 9.2 2 Sudoeste 8 Oeste 0 -- -- 89
2019-12-05 10:00:00 8.1 3 Oeste 6 Oeste 0 -- -- 92
2019-12-05 09:00:00 8 2 Sur 5 Sudoeste 0 -- -- 93
2019-12-05 08:00:00 7.7 4 Oeste 5 Noroeste 0 -- -- 93
2019-12-05 07:00:00 7.5 0 Calma 5 Oeste 0 -- -- 93
2019-12-05 06:00:00 7.7 0 Calma 5 Sur 0 -- -- 92
2019-12-05 05:00:00 7.7 0 Calma 6 Noroeste 0 -- -- 91
2019-12-05 04:00:00 7.5 0 Calma 6 Oeste 0 -- -- 91
2019-12-05 03:00:00 7.3 0 Calma 8 Oeste 0 -- -- 90
2019-12-05 02:00:00 7.3 4 Oeste 8 Oeste 0 -- -- 89
2019-12-05 01:00:00 7.7 2 Sudoeste 10 Sudoeste 0 -- -- 87
2019-12-05 00:00:00 7.7 5 Sudoeste 16 Sudoeste 0 -- -- 85
2019-12-04 23:00:00 7.7 8 Sudoeste 21 Sudoeste 0 -- -- 87
2019-12-04 22:00:00 7.7 9 Sudoeste 20 Oeste 0 -- -- 87
2019-12-04 21:00:00 7.5 9 Sudoeste 24 Oeste 0 -- -- 92
2019-12-04 20:00:00 7.6 2 Oeste 8 Noroeste 0 -- -- 95
2019-12-04 19:00:00 7.8 3 Noroeste 14 Noroeste 0 -- -- 94
2019-12-04 18:00:00 8.6 6 Norte 20 Sudoeste 0 -- -- 90
2019-12-04 17:00:00 8.8 6 Sudoeste 21 Noroeste 0 -- -- 89
2019-12-04 16:00:00 8.7 6 Oeste 17 Sudoeste 0 -- -- 89
2019-12-04 15:00:00 8.4 6 Oeste 14 Oeste 0 -- -- 91
2019-12-04 14:00:00 8.5 4 Oeste 12 Sudoeste 0 -- -- 88
2019-12-04 13:00:00 8.2 2 Noroeste 5 Norte 0 -- -- 91
2019-12-04 12:00:00 6.8 2 Noroeste 9 Oeste 0 -- -- 97
2019-12-04 11:00:00 5.3 2 Oeste 6 Oeste 0 -- -- 98
2019-12-04 10:00:00 4 2 Sudeste 7 Norte 0 -- -- 98
2019-12-04 09:00:00 3.3 0 Calma 6 Oeste 0 -- -- 98
2019-12-04 08:00:00 3.3 2 Sudeste 5 Este 0 -- -- 98
2019-12-04 07:00:00 2.8 3 Oeste 7 Noroeste 0 -- -- 98
2019-12-04 06:00:00 2.4 2 Sudeste 5 Oeste 0 -- -- 98
2019-12-04 05:00:00 2.2 0 Calma 6 Sudoeste 0 -- -- 97
2019-12-04 04:00:00 1.8 5 Oeste 7 Oeste 0 -- -- 97
2019-12-04 03:00:00 2.1 5 Oeste 8 Oeste 0 -- -- 97
2019-12-04 02:00:00 3.1 0 Calma 3 Sudeste 0 -- -- 97
2019-12-04 01:00:00 2.8 0 Calma 5 Oeste 0 -- -- 97
2019-12-04 00:00:00 2.6 2 Oeste 6 Oeste 0 -- -- 97
2019-12-03 23:00:00 2.9 0 Calma 6 Oeste 0 -- -- 96
2019-12-03 22:00:00 3 2 Noroeste 5 Norte 0 -- -- 96
2019-12-03 21:00:00 3.4 2 Norte 4 Norte 0 -- -- 95
2019-12-03 20:00:00 3.8 0 Calma 6 Sudoeste 0 -- -- 95
2019-12-03 19:00:00 4.1 4 Oeste 7 Oeste 0 -- -- 93
2019-12-03 18:00:00 5.1 2 Este 6 Este 0 -- -- 91
2019-12-03 17:00:00 6 0 Calma 4 Nordeste 0 -- -- 89
2019-12-03 16:00:00 6.2 0 Calma 4 Noroeste 0 -- -- 88
2019-12-03 15:00:00 6.2 0 Calma 6 Norte 0 -- -- 90
2019-12-03 14:00:00 5.9 2 Nordeste 7 Norte 0 -- -- 93
2019-12-03 13:00:00 5.3 3 Norte 6 Norte 0 -- -- 97
2019-12-03 12:00:00 4.7 3 Nordeste 6 Nordeste 0.2 -- -- 99
2019-12-03 11:00:00 4.8 0 Calma 7 Este 0 -- -- 98
2019-12-03 10:00:00 5 0 Calma 4 Nordeste 0 -- -- 99
2019-12-03 09:00:00 4.7 2 Noroeste 5 Noroeste 0 -- -- 98
2019-12-03 08:00:00 4.7 0 Calma 6 Noroeste 0 -- -- 98
2019-12-03 07:00:00 4.4 3 Sudoeste 4 Oeste 0 -- -- 98
2019-12-03 06:00:00 4.5 0 Calma 4 Noroeste 0 -- -- 98
2019-12-03 05:00:00 4.4 3 Oeste 5 Oeste 0 -- -- 98
2019-12-03 04:00:00 4.6 0 Calma 4 Nordeste 0 -- -- 98
2019-12-03 03:00:00 4.8 0 Calma 8 Este 0 -- -- 98
2019-12-03 02:00:00 5 0 Calma 4 Norte 0 -- -- 98
2019-12-03 01:00:00 5.1 0 Calma 4 Noroeste 0 -- -- 98
2019-12-03 00:00:00 5 0 Calma 6 Norte 0 -- -- 98
2019-12-02 23:00:00 5.2 2 Norte 6 Norte 0 -- -- 98
2019-12-02 22:00:00 5.4 2 Sudeste 8 Nordeste 0.2 -- -- 98
2019-12-02 21:00:00 5.6 2 Noroeste 7 Nordeste 0 -- -- 98
2019-12-02 20:00:00 6 3 Nordeste 8 Norte 0.2 -- -- 98
2019-12-02 19:00:00 6.1 0 Calma 3 Este 0 -- -- 98
2019-12-02 18:00:00 6.2 0 Calma 4 Noroeste 0.4 -- -- 98
2019-12-02 17:00:00 6.4 0 Calma 7 Este 0.2 -- -- 97
2019-12-02 16:00:00 6.4 5 Norte 18 Noroeste 0 -- -- 98
2019-12-02 15:00:00 6.8 6 Nordeste 22 Norte 0.4 -- -- 98
2019-12-02 14:00:00 7.8 9 Norte 22 Norte 0.2 -- -- 98
2019-12-02 13:00:00 8.4 5 Norte 23 Norte 0.4 -- -- 98
2019-12-02 12:00:00 8.8 0 Calma 9 Este 1 -- -- 98
2019-12-02 11:00:00 8.8 2 Este 14 Nordeste 0 -- -- 98
2019-12-02 10:00:00 8.4 3 Este 15 Este 0 -- -- 98
2019-12-02 09:00:00 8.3 2 Este 6 Nordeste 0.2 -- -- 98
2019-12-02 08:00:00 8.2 3 Sudeste 8 Nordeste 0 -- -- 97
2019-12-02 07:00:00 8.3 2 Este 10 Nordeste 0 -- -- 97
2019-12-02 06:00:00 8.2 5 Nordeste 10 Nordeste 0 -- -- 96
2019-12-02 05:00:00 8.3 3 Este 7 Nordeste 0.4 -- -- 95
2019-12-02 04:00:00 8.1 0 Calma 6 Norte 0 -- -- 94
2019-12-02 03:00:00 8.1 0 Calma 4 Noroeste 0 -- -- 94
2019-12-02 02:00:00 8 0 Calma 6 Oeste 0 -- -- 92
2019-12-02 01:00:00 8.3 0 Calma 5 Norte 0 -- -- 90
2019-12-02 00:00:00 9 0 Calma 4 Sudoeste 0 -- -- 89
2019-12-01 23:00:00 9.1 0 Calma 4 Oeste 0 -- -- 88
2019-12-01 22:00:00 9.2 3 Norte 5 Norte 0 -- -- 86
2019-12-01 21:00:00 9.7 0 Calma 5 Oeste 0 -- -- 84
2019-12-01 20:00:00 10.5 0 Calma 4 Oeste 0 -- -- 81
2019-12-01 19:00:00 10.6 2 Sudoeste 4 Oeste 0 -- -- 79
2019-12-01 18:00:00 11.3 0 Calma 4 Oeste 0 -- -- 75
2019-12-01 17:00:00 12.2 0 Calma 10 Noroeste 0 -- -- 73
2019-12-01 16:00:00 12.6 6 Noroeste 14 Noroeste 0 -- -- 72
2019-12-01 15:00:00 13.8 6 Noroeste 13 Noroeste 0 -- -- 65
2019-12-01 14:00:00 14.2 4 Noroeste 10 Oeste 0 -- -- 65
2019-12-01 13:00:00 13.1 0 Calma 6 Noroeste 0 -- -- 75
2019-12-01 12:00:00 11.6 0 Calma 5 Sudoeste 0 -- -- 85
2019-12-01 11:00:00 10 3 Oeste 5 Norte 0 -- -- 85
2019-12-01 10:00:00 8.6 0 Calma 5 Oeste 0 -- -- 79
2019-12-01 09:00:00 8.2 0 Calma 4 Nordeste 0 -- -- 81
2019-12-01 08:00:00 7.9 4 Oeste 8 Oeste 0 -- -- 81
2019-12-01 07:00:00 7.8 2 Sudoeste 6 Oeste 0 -- -- 81
2019-12-01 06:00:00 8.5 4 Oeste 6 Oeste 0 -- -- 77
2019-12-01 05:00:00 8.6 4 Oeste 8 Noroeste 0 -- -- 79
2019-12-01 04:00:00 8.3 2 Norte 12 Oeste 0 -- -- 82
2019-12-01 03:00:00 8.6 3 Oeste 6 Noroeste 0 -- -- 82
2019-12-01 02:00:00 8.6 3 Norte 5 Oeste 0 -- -- 83
2019-12-01 01:00:00 9 0 Calma 5 Oeste 0 -- -- 82
2019-12-01 00:00:00 8.9 2 Noroeste 6 Norte 0 -- -- 83
2019-11-30 23:00:00 9.4 0 Calma 9 Sudoeste 0 -- -- 83
2019-11-30 22:00:00 9.5 7 Oeste 10 Oeste 0 -- -- 85
2019-11-30 21:00:00 10.4 5 Sudoeste 10 Sudoeste 0 -- -- 81
2019-11-30 20:00:00 10.4 5 Oeste 12 Oeste 0 -- -- 85
2019-11-30 19:00:00 10.2 5 Oeste 13 Oeste 0.6 -- -- 93
2019-11-30 18:00:00 10.4 3 Sur 16 Sudoeste 1 -- -- 94
2019-11-30 17:00:00 10.7 6 Sudoeste 19 Sudoeste 2.2 -- -- 92
2019-11-30 16:00:00 10.8 8 Sudoeste 23 Sudoeste 2.4 -- -- 93
2019-11-30 15:00:00 11.1 9 Sudoeste 25 Sudoeste 1.8 -- -- 93
2019-11-30 14:00:00 11.2 10 Sudoeste 27 Oeste 3 -- -- 93
2019-11-30 13:00:00 11.9 12 Sudoeste 33 Oeste 1.6 -- -- 92
2019-11-30 12:00:00 14.3 13 Oeste 35 Oeste 0.2 -- -- 86
2019-11-30 11:00:00 16.7 4 Oeste 26 Sur 0 -- -- 68
2019-11-30 10:00:00 16.9 3 Este 29 Sur 0 -- -- 63
2019-11-30 09:00:00 16.7 8 Sur 26 Sur 0 -- -- 64
2019-11-30 08:00:00 15.9 9 Sudoeste 28 Sur 0.4 -- -- 67
2019-11-30 07:00:00 17 11 Sudoeste 32 Oeste 0 -- -- 63
2019-11-30 06:00:00 16 4 Norte 20 Sur 0 -- -- 62
2019-11-30 05:00:00 13.3 3 Noroeste 8 Norte 0 -- -- 70
2019-11-30 04:00:00 11.9 2 Sudeste 8 Oeste 0 -- -- 75
2019-11-30 03:00:00 11.2 2 Sudeste 5 Oeste 0 -- -- 78
2019-11-30 02:00:00 10.1 2 Sudeste 10 Oeste 0 -- -- 87
2019-11-30 01:00:00 10.5 3 Oeste 6 Oeste 0 -- -- 87
2019-11-30 00:00:00 10.8 3 Noroeste 6 Noroeste 0 -- -- 88
2019-11-29 23:00:00 10.6 0 Calma 6 Oeste 0 -- -- 92
2019-11-29 22:00:00 10.6 5 Oeste 8 Oeste 0 -- -- 92
2019-11-29 21:00:00 10.7 3 Oeste 5 Nordeste 0 -- -- 91
2019-11-29 20:00:00 11.1 0 Calma 5 Oeste 0 -- -- 89
2019-11-29 19:00:00 11.6 0 Calma 6 Nordeste 0 -- -- 86
2019-11-29 18:00:00 12.7 0 Calma 6 Este 0 -- -- 82
2019-11-29 17:00:00 14.2 3 Este 9 Este 0 -- -- 77
2019-11-29 16:00:00 15.5 0 Calma 7 Sudoeste 0 -- -- 68
2019-11-29 15:00:00 15.5 3 Sudoeste 13 Oeste 0 -- -- 70
2019-11-29 14:00:00 16.1 8 Oeste 15 Oeste 0 -- -- 73
2019-11-29 13:00:00 15.7 5 Oeste 15 Sudoeste 0 -- -- 75
2019-11-29 12:00:00 14.9 6 Sudoeste 18 Sudoeste 0 -- -- 77
2019-11-29 11:00:00 14.1 7 Sudoeste 20 Sudoeste 0 -- -- 81
2019-11-29 10:00:00 13.6 8 Sudoeste 23 Sudoeste 0 -- -- 84
2019-11-29 09:00:00 13.2 7 Sudoeste 18 Sudoeste 0 -- -- 86
2019-11-29 08:00:00 13 7 Sudoeste 21 Sudoeste 0 -- -- 89
2019-11-29 07:00:00 12.9 7 Sudoeste 20 Sudoeste 0 -- -- 92
2019-11-29 06:00:00 12.7 7 Sudoeste 19 Sudoeste 0 -- -- 94
2019-11-29 05:00:00 12.5 8 Sudoeste 27 Sudoeste 0.2 -- -- 96
2019-11-29 04:00:00 12.4 6 Sudoeste 28 Sudoeste 0 -- -- 95
2019-11-29 03:00:00 12.2 9 Sudoeste 22 Sudoeste 0.2 -- -- 95
2019-11-29 02:00:00 11.9 6 Sudoeste 19 Sudoeste 0.4 -- -- 96
2019-11-29 01:00:00 11.3 4 Sudoeste 13 Sur 0 -- -- 97
2019-11-29 00:00:00 10.4 2 Oeste 6 Noroeste 0 -- -- 96
2019-11-28 23:00:00 10 4 Oeste 5 Oeste 0 -- -- 96
2019-11-28 22:00:00 9.9 3 Oeste 7 Sudoeste 0 -- -- 95
2019-11-28 21:00:00 10.1 5 Oeste 7 Oeste 0.2 -- -- 94
2019-11-28 20:00:00 10.5 4 Sur 6 Sur 0.8 -- -- 93
2019-11-28 19:00:00 10.7 4 Sur 12 Sudoeste 0.6 -- -- 93
2019-11-28 18:00:00 11.2 5 Sudoeste 9 Sudoeste 2.6 -- -- 93
2019-11-28 17:00:00 11.8 4 Noroeste 19 Noroeste 1.2 -- -- 92
2019-11-28 16:00:00 12.8 3 Sudoeste 8 Noroeste 0.4 -- -- 84
2019-11-28 15:00:00 13.8 0 Calma 9 Sudoeste 0 -- -- 73
2019-11-28 14:00:00 13.8 4 Sudoeste 10 Sudoeste 0 -- -- 73
2019-11-28 13:00:00 13.8 4 Sudoeste 14 Oeste 0 -- -- 74
2019-11-28 12:00:00 13.6 7 Sudoeste 16 Sudoeste 0 -- -- 77
2019-11-28 11:00:00 12.8 8 Sudoeste 21 Sudoeste 0 -- -- 83
2019-11-28 10:00:00 12.6 7 Sudoeste 27 Sudoeste 0 -- -- 84
2019-11-28 09:00:00 12.3 11 Sudoeste 26 Sudoeste 0 -- -- 85
2019-11-28 08:00:00 12 9 Sudoeste 28 Oeste 0.6 -- -- 87
2019-11-28 07:00:00 12.1 4 Oeste 17 Sudoeste 0 -- -- 85
2019-11-28 06:00:00 12.1 7 Sudoeste 20 Oeste 0.4 -- -- 87
2019-11-28 05:00:00 12.4 5 Oeste 18 Sudoeste 0 -- -- 78
2019-11-28 04:00:00 13.5 6 Sudoeste 15 Sudoeste 0 -- -- 68
2019-11-28 03:00:00 13.4 5 Oeste 19 Sudoeste 0 -- -- 71
2019-11-28 02:00:00 13.7 8 Sudoeste 19 Sudoeste 0 -- -- 70
2019-11-28 01:00:00 13.3 8 Sudoeste 21 Oeste 0 -- -- 72
2019-11-28 00:00:00 13.4 6 Sudoeste 13 Sudoeste 0 -- -- 71
2019-11-27 23:00:00 12.2 0 Calma 8 Sudoeste 0 -- -- 79
2019-11-27 22:00:00 13.1 6 Sudoeste 17 Sur 0 -- -- 75
2019-11-27 21:00:00 12.7 8 Sudoeste 18 Sudoeste 0 -- -- 79
2019-11-27 20:00:00 11.8 7 Oeste 17 Oeste 0 -- -- 85
2019-11-27 19:00:00 11.8 8 Sudoeste 20 Sudoeste 0.8 -- -- 89
2019-11-27 18:00:00 13 6 Oeste 37 Noroeste 1 -- -- 82
2019-11-27 17:00:00 15.9 9 Sudoeste 30 Sudoeste 0 -- -- 58
2019-11-27 16:00:00 16.2 9 Sudoeste 27 Sur 0 -- -- 56
2019-11-27 15:00:00 16.5 5 Sudoeste 19 Sur 0 -- -- 54
2019-11-27 14:00:00 16.7 8 Sudoeste 25 Sudoeste 0 -- -- 53
2019-11-27 06:00:00 -- -- -- -- -- -- -- -- --
2019-11-27 05:00:00 12.6 4 Oeste 13 Sudoeste 0 -- -- 79
2019-11-27 04:00:00 12.3 4 Oeste 9 Sur 0 -- -- 82
2019-11-27 03:00:00 13.3 6 Sur 13 Oeste 0 -- -- 79
2019-11-27 02:00:00 12.6 4 Sur 9 Sudoeste 0 -- -- 87
2019-11-27 01:00:00 12.2 0 Calma 7 Sudoeste 0 -- -- 88
2019-11-27 00:00:00 12.9 5 Sur 23 Oeste 0 -- -- 88
2019-11-26 23:00:00 13.7 6 Sudoeste 45 Oeste 0 -- -- 85
2019-11-26 22:00:00 19.7 18 Sudoeste 41 Oeste 0 -- -- 49
2019-11-26 21:00:00 18.8 7 Sur 43 Oeste 0 -- -- 60
2019-11-26 20:00:00 19.4 17 Sur 48 Sur 0 -- -- 58
2019-11-26 19:00:00 19.6 12 Sudeste 44 Sur 0 -- -- 57
2019-11-26 18:00:00 19.1 9 Sudoeste 46 Sudoeste 0 -- -- 59
2019-11-26 17:00:00 18.2 4 Sur 26 Sur 0 -- -- 62
2019-11-26 16:00:00 18.8 9 Sur 28 Sur 0 -- -- 59
2019-11-26 15:00:00 19.1 5 Sudoeste 37 Oeste 0 -- -- 57
2019-11-26 14:00:00 19.7 17 Sudoeste 38 Oeste 0 -- -- 55
2019-11-26 13:00:00 20.1 15 Oeste 41 Oeste 0 -- -- 56
2019-11-26 12:00:00 20 10 Sudoeste 27 Sudoeste 0 -- -- 59
2019-11-26 11:00:00 19.2 8 Oeste 24 Sudoeste 0 -- -- 59
2019-11-26 10:00:00 17.8 7 Sudoeste 21 Oeste 0 -- -- 60
2019-11-26 09:00:00 17.3 6 Sudoeste 24 Sudoeste 0 -- -- 60
2019-11-26 08:00:00 16.5 4 Nordeste 14 Norte 0 -- -- 60
2019-11-26 07:00:00 15.3 3 Norte 14 Nordeste 0 -- -- 62
2019-11-26 06:00:00 14.6 4 Este 15 Este 0 -- -- 65
2019-11-26 05:00:00 13.7 3 Noroeste 8 Norte 0 -- -- 68
2019-11-26 04:00:00 12.5 3 Este 9 Oeste 0 -- -- 77
2019-11-26 03:00:00 11.2 3 Sudeste 8 Oeste 0 -- -- 90
2019-11-26 02:00:00 11.3 0 Calma 6 Sur 0 -- -- 92
2019-11-26 01:00:00 11.4 2 Noroeste 5 Oeste 0 -- -- 94
2019-11-26 00:00:00 11.5 0 Calma 6 Oeste 0 -- -- 93
2019-11-25 23:00:00 11.9 0 Calma 6 Oeste 0 -- -- 91
2019-11-25 22:00:00 12.9 0 Calma 4 Noroeste 0 -- -- 85
2019-11-25 21:00:00 13.6 0 Calma 5 Noroeste 0 -- -- 82
2019-11-25 20:00:00 13.9 0 Calma 4 Sudoeste 0 -- -- 81
2019-11-25 19:00:00 14.2 2 Sur 6 Sudoeste 0 -- -- 80
2019-11-25 18:00:00 14.3 3 Sudoeste 8 Sudoeste 0 -- -- 81
2019-11-25 17:00:00 14.7 3 Sudoeste 9 Sudoeste 0 -- -- 81
2019-11-25 16:00:00 15.2 2 Sudoeste 9 Sudoeste 0 -- -- 80
2019-11-25 15:00:00 15.2 3 Oeste 11 Sudoeste 0 -- -- 81
2019-11-25 14:00:00 15.1 7 Noroeste 23 Noroeste 0 -- -- 77
2019-11-25 13:00:00 17.2 3 Noroeste 10 Norte 0 -- -- 72
2019-11-25 12:00:00 15.7 0 Calma 8 Oeste 0 -- -- 74
2019-11-25 11:00:00 14.5 7 Noroeste 13 Noroeste 0 -- -- 83
2019-11-25 10:00:00 13.7 2 Sudoeste 12 Oeste 0 -- -- 80
2019-11-25 09:00:00 13.9 6 Sudoeste 17 Sudoeste 0 -- -- 74
2019-11-25 08:00:00 13.7 6 Sudoeste 16 Sudoeste 0.2 -- -- 74
2019-11-25 07:00:00 13.2 9 Sudoeste 15 Sudoeste 0 -- -- 76
2019-11-25 06:00:00 12.3 3 Este 6 Nordeste 0 -- -- 78
2019-11-25 05:00:00 12.5 4 Este 12 Sudoeste 0 -- -- 78
2019-11-25 04:00:00 13.2 3 Sur 14 Sudeste 0 -- -- 76
2019-11-25 03:00:00 12.8 4 Oeste 16 Oeste 0 -- -- 81
2019-11-25 02:00:00 12.7 7 Oeste 17 Oeste 0 -- -- 81
2019-11-25 01:00:00 10.2 2 Sur 6 Sudeste 0 -- -- 93
2019-11-25 00:00:00 10 4 Noroeste 9 Nordeste 0.4 -- -- 91
2019-11-24 23:00:00 10.3 6 Sudoeste 17 Oeste 2.4 -- -- 87
2019-11-24 22:00:00 11.3 5 Oeste 10 Oeste 0 -- -- 69
2019-11-24 21:00:00 10.9 3 Oeste 7 Oeste 0 -- -- 69
2019-11-24 20:00:00 10.8 3 Oeste 6 Oeste 0 -- -- 71
2019-11-24 19:00:00 10.4 3 Sur 7 Oeste 0 -- -- 75
2019-11-24 18:00:00 11 0 Calma 6 Nordeste 0 -- -- 74
2019-11-24 17:00:00 12.3 2 Sudoeste 8 Oeste 0 -- -- 70
2019-11-24 16:00:00 12.6 2 Oeste 17 Sudoeste 0 -- -- 72
2019-11-24 15:00:00 12.7 6 Sudoeste 25 Sudoeste 0 -- -- 74
2019-11-24 14:00:00 13.1 8 Sudoeste 26 Oeste 0 -- -- 74
2019-11-24 13:00:00 11.9 7 Sudoeste 21 Oeste 0 -- -- 81
2019-11-24 12:00:00 10.7 6 Sudoeste 18 Sur 0.4 -- -- 88
2019-11-24 11:00:00 10.2 9 Sudoeste 23 Sudoeste 0.6 -- -- 90
2019-11-24 10:00:00 9.8 6 Sudoeste 26 Oeste 1.4 -- -- 90
2019-11-24 09:00:00 9.5 12 Sudoeste 27 Oeste 0.6 -- -- 92
2019-11-24 08:00:00 9.5 14 Oeste 37 Oeste 2 -- -- 93
2019-11-24 07:00:00 9.1 8 Sudoeste 33 Noroeste 12.4 -- -- 95
2019-11-24 06:00:00 9.3 7 Sudoeste 32 Sudoeste 3.2 -- -- 93
2019-11-24 05:00:00 9.1 10 Sudoeste 32 Oeste 1 -- -- 92
2019-11-24 04:00:00 9 14 Sudoeste 35 Oeste 6.2 -- -- 93
2019-11-24 03:00:00 9.3 12 Sudoeste 40 Oeste 0.2 -- -- 87
2019-11-24 02:00:00 8.9 14 Sudoeste 53 Sudoeste 0.6 -- -- 90
2019-11-24 01:00:00 9 17 Sudoeste 45 Oeste 1.6 -- -- 91
2019-11-24 00:00:00 9.3 13 Sudoeste -- -- 9.2 -- -- 93
2019-11-23 23:00:00 9.2 7 Oeste 34 Sudoeste 3.6 -- -- 92
2019-11-23 22:00:00 9.5 11 Sudoeste 39 Oeste 1.6 -- -- 89
2019-11-23 21:00:00 9.6 12 Sudoeste 31 Sudoeste 1.8 -- -- 91
2019-11-23 20:00:00 10 10 Sudoeste 40 Oeste 2.6 -- -- 88
2019-11-23 19:00:00 12.2 19 Oeste 48 Noroeste 0 -- -- 73
2019-11-23 18:00:00 11.9 20 Oeste 53 Oeste 0 -- -- 76
2019-11-23 17:00:00 11.3 25 Oeste 71 Oeste 1.2 -- -- 79
2019-11-23 16:00:00 11.1 17 Oeste 58 Oeste 0.6 -- -- 82
2019-11-23 15:00:00 12.1 21 Oeste 58 Oeste 0 -- -- 75
2019-11-23 14:00:00 12.1 21 Oeste 69 Oeste 0.2 -- -- 79
2019-11-23 13:00:00 12.4 27 Oeste 82 Oeste 0 -- -- 68
2019-11-23 12:00:00 11.7 36 Oeste 90 Oeste 2 -- -- 68
2019-11-23 11:00:00 10.6 27 Oeste 97 Sudoeste 2 -- -- 90
2019-11-23 10:00:00 10.5 30 Oeste 76 Oeste 5.2 -- -- 94
2019-11-23 09:00:00 10.8 24 Oeste 74 Oeste 4 -- -- 94
2019-11-23 08:00:00 9.6 16 Sudoeste 39 Oeste 5.6 -- -- 92
2019-11-23 07:00:00 10.1 14 Sudoeste 35 Oeste 3 -- -- 84
2019-11-23 06:00:00 11 12 Sudoeste 35 Sudoeste 1 -- -- 79
2019-11-23 05:00:00 12.4 12 Sudoeste 31 Oeste 0 -- -- 71
2019-11-23 04:00:00 14.2 10 Sudoeste 35 Sudoeste 0 -- -- 56
2019-11-23 03:00:00 14.3 12 Sudoeste 28 Oeste 0 -- -- 55
2019-11-23 02:00:00 14.7 11 Sudoeste 33 Oeste 0 -- -- 55
2019-11-23 01:00:00 15.2 12 Sudoeste 34 Sudoeste 0 -- -- 55
2019-11-23 00:00:00 15.4 13 Sudoeste 42 Sudoeste 0 -- -- 54
2019-11-22 23:00:00 15.1 14 Sudoeste 39 Sur 0 -- -- 55
2019-11-22 22:00:00 15.3 8 Sudoeste 35 Sur 0 -- -- 58
2019-11-22 21:00:00 14.9 8 Sur 31 Sur 0 -- -- 59
2019-11-22 20:00:00 15.2 13 Sur 49 Sudeste 0 -- -- 60
2019-11-22 19:00:00 14.5 16 Sur 58 Sur 0 -- -- 65
2019-11-22 18:00:00 15.6 23 Sur 60 Sur 0 -- -- 59
2019-11-22 17:00:00 15.7 20 Sur 63 Sur 0 -- -- 59
2019-11-22 16:00:00 14.8 14 Sur 64 Sur 0 -- -- 61
2019-11-22 15:00:00 15 21 Sudeste 72 Sudoeste 0 -- -- 58
2019-11-22 14:00:00 14.6 13 Sur 39 Sudeste 0 -- -- 58
2019-11-22 13:00:00 14.9 8 Sudeste 40 Sur 0 -- -- 58
2019-11-22 12:00:00 14.3 12 Sudeste 51 Sur 0 -- -- 59
2019-11-22 11:00:00 13.8 18 Sudeste 58 Sur 0 -- -- 58
2019-11-22 10:00:00 13.4 11 Sudeste 37 Sudeste 0 -- -- 60
2019-11-22 09:00:00 13.4 11 Sur 48 Sur 0 -- -- 58
2019-11-22 08:00:00 13.2 11 Sur 49 Sur 0 -- -- 58
2019-11-22 07:00:00 12.9 8 Sudeste 26 Sudoeste 0 -- -- 57
2019-11-22 06:00:00 12.8 9 Sudeste 36 Sur 0 -- -- 58
2019-11-22 05:00:00 11.6 4 Sur 21 Sudeste 0 -- -- 64
2019-11-22 04:00:00 11.6 4 Sudeste 31 Sur 0 -- -- 62
2019-11-22 03:00:00 12 10 Sudeste 24 Sur 0 -- -- 60
2019-11-22 02:00:00 11.3 5 Sudeste 21 Sur 0 -- -- 65
2019-11-22 01:00:00 11.5 4 Sudeste 20 Oeste 0 -- -- 63
2019-11-22 00:00:00 11.5 3 Sudeste 18 Sur 0 -- -- 63
2019-11-21 23:00:00 11.1 4 Noroeste 14 Noroeste 0 -- -- 63
2019-11-21 22:00:00 10.7 3 Este 13 Sur 0 -- -- 63
2019-11-21 21:00:00 11 2 Sur 12 Sudoeste 0 -- -- 64
2019-11-21 20:00:00 11.3 6 Sudoeste 12 Oeste 0 -- -- 63
2019-11-21 19:00:00 11.4 4 Oeste 14 Oeste 0 -- -- 63
2019-11-21 18:00:00 12.1 4 Oeste 18 Sudoeste 0 -- -- 60
2019-11-21 17:00:00 12.9 8 Sudoeste 20 Sudoeste 0 -- -- 60
2019-11-21 16:00:00 13.4 5 Sudoeste 22 Sudoeste 0 -- -- 59
2019-11-21 15:00:00 13.8 7 Sudoeste 21 Sudoeste 0 -- -- 56
2019-11-21 14:00:00 14 8 Sudoeste 25 Sur 0 -- -- 58
2019-11-21 13:00:00 13.5 12 Sudoeste 25 Sudoeste 0 -- -- 57
2019-11-21 12:00:00 13.2 6 Sudoeste 21 Oeste 0 -- -- 57
2019-11-21 11:00:00 12.5 4 Sudoeste 24 Sudeste 0 -- -- 59
2019-11-21 10:00:00 11.6 7 Sudoeste 26 Oeste 0 -- -- 62
2019-11-21 09:00:00 11.2 10 Sudoeste 23 Sudoeste 0 -- -- 63
2019-11-21 08:00:00 10.8 5 Sudoeste 20 Sudeste 0 -- -- 64
2019-11-21 07:00:00 10.6 4 Sudeste 20 Sur 0 -- -- 64
2019-11-21 06:00:00 10.8 5 Sudoeste 20 Oeste 0 -- -- 64
2019-11-21 05:00:00 10.8 9 Sudoeste 25 Sudoeste 0 -- -- 64
2019-11-21 04:00:00 10.8 5 Este 26 Sur 0 -- -- 64
2019-11-21 03:00:00 10.5 7 Sur 25 Sur 0 -- -- 66
2019-11-21 02:00:00 10.7 5 Sudeste 18 Este 0 -- -- 66
2019-11-21 01:00:00 10.9 4 Sudeste 30 Sur 0 -- -- 65
2019-11-21 00:00:00 11.2 11 Sur 32 Sur 0 -- -- 61
2019-11-20 23:00:00 11.6 5 Sudeste 30 Sur 0 -- -- 63
2019-11-20 22:00:00 12.1 7 Sudeste 20 Sur 0 -- -- 56
2019-11-20 21:00:00 12.1 5 Sudeste 24 Sur 0 -- -- 57
2019-11-20 20:00:00 11.2 2 Sudeste 8 Este 0 -- -- 63
2019-11-20 19:00:00 11.4 4 Noroeste 8 Norte 0 -- -- 65
2019-11-20 18:00:00 11.9 2 Noroeste 8 Noroeste 0 -- -- 61
2019-11-20 17:00:00 12.7 5 Norte 10 Norte 0 -- -- 59
2019-11-20 16:00:00 13.1 2 Sudeste 13 Sur 0 -- -- 59
2019-11-20 15:00:00 13.9 0 Calma 8 Nordeste 0 -- -- 55
2019-11-20 14:00:00 13.7 4 Norte 13 Noroeste 0 -- -- 58
2019-11-20 13:00:00 13.1 5 Nordeste 15 Norte 0 -- -- 56
2019-11-20 12:00:00 12.1 4 Norte 13 Sur 0 -- -- 59
2019-11-20 11:00:00 11.4 3 Este 14 Este 0 -- -- 58
2019-11-20 10:00:00 10.5 5 Este 20 Norte 0 -- -- 61
2019-11-20 09:00:00 9.7 7 Nordeste 22 Norte 0 -- -- 62
2019-11-20 08:00:00 9.7 6 Sudeste 25 Sudoeste 0 -- -- 60
2019-11-20 07:00:00 9.4 5 Este 22 Sudeste 0 -- -- 63
2019-11-20 06:00:00 8.9 4 Nordeste 14 Nordeste 0 -- -- 67
2019-11-20 05:00:00 8.3 3 Nordeste 11 Sudeste 0 -- -- 68
2019-11-20 04:00:00 7.7 3 Este 6 Nordeste 0 -- -- 69
2019-11-20 03:00:00 6.9 0 Calma 6 Oeste 0 -- -- 73
2019-11-20 02:00:00 6.7 0 Calma 4 Sudeste 0 -- -- 75
2019-11-20 01:00:00 6.4 0 Calma 5 Oeste 0 -- -- 78
2019-11-20 00:00:00 6.3 0 Calma 6 Oeste 0 -- -- 81
2019-11-19 23:00:00 6 3 Noroeste 6 Oeste 0 -- -- 85
2019-11-19 22:00:00 6 0 Calma 4 Sudoeste 0 -- -- 86
2019-11-19 21:00:00 5.9 2 Oeste 9 Oeste 0 -- -- 91
2019-11-19 20:00:00 6.2 6 Oeste 8 Oeste 0 -- -- 89
2019-11-19 19:00:00 6.9 5 Oeste 6 Sudoeste 0 -- -- 85
2019-11-19 18:00:00 7.7 3 Oeste 6 Este 0 -- -- 82
2019-11-19 17:00:00 9.1 0 Calma 9 Este 0 -- -- 79
2019-11-19 16:00:00 9.8 2 Este 9 Nordeste 0 -- -- 73
2019-11-19 15:00:00 10.5 4 Nordeste 8 Norte 0 -- -- 71
2019-11-19 14:00:00 10.1 3 Norte 6 Norte 0 -- -- 74
2019-11-19 13:00:00 9.5 3 Norte 6 Norte 0 -- -- 81
2019-11-19 12:00:00 8.5 3 Oeste 6 Oeste 0 -- -- 88
2019-11-19 11:00:00 6.5 0 Calma 6 Oeste 0 -- -- 96
2019-11-19 10:00:00 5.6 2 Oeste 4 Noroeste 0 -- -- 97
2019-11-19 09:00:00 4.9 3 Sudoeste 6 Oeste 0 -- -- 96
2019-11-19 08:00:00 5 0 Calma 5 Oeste 0 -- -- 96
2019-11-19 07:00:00 5.2 0 Calma 4 Oeste 0 -- -- 95
2019-11-19 06:00:00 5.6 0 Calma 4 Oeste 0 -- -- 95
2019-11-19 05:00:00 6 4 Norte 6 Norte 0 -- -- 95
2019-11-19 04:00:00 6.1 0 Calma 8 Noroeste 0.2 -- -- 95
2019-11-19 03:00:00 6.1 5 Oeste 7 Oeste 0.2 -- -- 95
2019-11-19 02:00:00 6.2 3 Sur 11 Oeste 0.4 -- -- 93
2019-11-19 01:00:00 6.2 3 Sudoeste 8 Oeste 0 -- -- 90
2019-11-19 00:00:00 6.6 2 Sudeste 5 Noroeste 0 -- -- 85
2019-11-18 23:00:00 6.2 3 Sudoeste 8 Oeste 0 -- -- 86
2019-11-18 22:00:00 6.1 5 Oeste 8 Oeste 0 -- -- 86
2019-11-18 21:00:00 6.1 3 Sudoeste 9 Oeste 0 -- -- 84
2019-11-18 20:00:00 6.7 0 Calma 5 Oeste 0 -- -- 82
2019-11-18 19:00:00 7 2 Oeste 4 Noroeste 0 -- -- 81
2019-11-18 18:00:00 7.4 0 Calma 3 Sur 0 -- -- 76
2019-11-18 17:00:00 8.3 0 Calma 0 Calma 0 -- -- 72
2019-11-18 16:00:00 8.7 0 Calma 6 Nordeste 0 -- -- 74
2019-11-18 15:00:00 9.1 3 Nordeste 8 Nordeste 0 -- -- 75
2019-11-18 14:00:00 8.5 0 Calma 6 Nordeste 0 -- -- 72
2019-11-18 13:00:00 7.9 0 Calma 5 Sur 0 -- -- 81
2019-11-18 12:00:00 7.2 0 Calma 4 Sudeste 0 -- -- 95
2019-11-18 11:00:00 6.7 0 Calma 3 Este 0 -- -- 96
2019-11-18 10:00:00 5.9 2 Noroeste 4 Noroeste 0 -- -- 96
2019-11-18 09:00:00 5.2 3 Oeste 6 Oeste 0 -- -- 97
2019-11-18 08:00:00 5.2 0 Calma 6 Sudeste 0.4 -- -- 96
2019-11-18 07:00:00 6.1 3 Este 8 Sudeste 0.2 -- -- 97
2019-11-18 06:00:00 6.4 0 Calma 4 Este 0 -- -- 97
2019-11-18 05:00:00 6.9 2 Sudeste 4 Sudeste 0 -- -- 96
2019-11-18 04:00:00 7.6 3 Este 23 Noroeste 1 -- -- 96
2019-11-18 03:00:00 8.1 0 Calma 4 Noroeste 3 -- -- 95
2019-11-18 02:00:00 8.4 2 Este 19 Norte 0 -- -- 94
2019-11-18 01:00:00 8.7 10 Norte 23 Norte 1 -- -- 96
2019-11-18 00:00:00 8.4 0 Calma 23 Sur 4.2 -- -- 96
2019-11-17 23:00:00 8.3 12 Sudoeste 27 Sudoeste 1.6 -- -- 95
2019-11-17 22:00:00 8.6 9 Sudoeste 31 Oeste 3.2 -- -- 94
2019-11-17 21:00:00 8.9 10 Sudoeste 30 Sudoeste 4.8 -- -- 91
2019-11-17 20:00:00 9.1 11 Sudoeste 31 Sudoeste 3.8 -- -- 89
2019-11-17 19:00:00 9.7 11 Sudoeste 32 Sudoeste 0.4 -- -- 86
2019-11-17 18:00:00 9.5 14 Sudoeste 33 Sur 0.8 -- -- 89
2019-11-17 17:00:00 9.3 9 Sudoeste 36 Sudoeste 3.6 -- -- 93
2019-11-17 16:00:00 9.6 12 Sudoeste 29 Oeste 1.6 -- -- 92
2019-11-17 15:00:00 9.8 11 Sudoeste 30 Sur 0.6 -- -- 90
2019-11-17 14:00:00 9.6 7 Oeste 22 Sudoeste 0.8 -- -- 91
2019-11-17 13:00:00 9.8 4 Oeste 16 Oeste 0.8 -- -- 92
2019-11-17 12:00:00 9 6 Oeste 12 Oeste 0.4 -- -- 92
2019-11-17 11:00:00 9.4 7 Oeste 17 Oeste 0 -- -- 91
2019-11-17 10:00:00 8.6 4 Oeste 10 Oeste 0 -- -- 93
2019-11-17 09:00:00 8.1 5 Oeste 17 Oeste 0 -- -- 93
2019-11-17 08:00:00 7.8 6 Oeste 22 Sudoeste 0.2 -- -- 92
2019-11-17 07:00:00 7.9 8 Sudoeste 22 Sudoeste 0.8 -- -- 92
2019-11-17 06:00:00 8.4 9 Sudoeste 25 Sudoeste 0.2 -- -- 88
2019-11-17 05:00:00 8.7 10 Sudoeste 31 Sudoeste 0 -- -- 84
2019-11-17 04:00:00 8.9 10 Sudoeste 30 Sudoeste 0 -- -- 81
2019-11-17 03:00:00 8.6 11 Sudoeste 31 Oeste 0 -- -- 82
2019-11-17 02:00:00 8.6 12 Sudoeste 33 Oeste 0 -- -- 80
2019-11-17 01:00:00 8.6 13 Sudoeste 37 Oeste 0 -- -- 79
2019-11-17 00:00:00 8.1 13 Sudoeste 34 Oeste 0 -- -- 81
2019-11-16 23:00:00 8 13 Sudoeste 35 Sudoeste 0.6 -- -- 84
2019-11-16 22:00:00 8.2 15 Sudoeste 42 Sudoeste 0 -- -- 82
2019-11-16 21:00:00 7.5 14 Sudoeste 39 Oeste 1.8 -- -- 90
2019-11-16 20:00:00 7.7 15 Sudoeste 49 Sudoeste 1.2 -- -- 90
2019-11-16 19:00:00 8 15 Sudoeste 39 Oeste 0.4 -- -- 87
2019-11-16 18:00:00 7.7 16 Sudoeste 42 Sudoeste 3.2 -- -- 91
2019-11-16 17:00:00 7.7 19 Sudoeste 43 Sudoeste 4.2 -- -- 90
2019-11-16 16:00:00 7.4 13 Sudoeste 39 Sudoeste 1.2 -- -- 90
2019-11-16 15:00:00 6.7 12 Sudoeste 37 Sudoeste 1.2 -- -- 91
2019-11-16 14:00:00 6.3 15 Sudoeste 45 Sudoeste 2 -- -- 91
2019-11-16 13:00:00 5.9 15 Sudoeste 38 Sudoeste 4 -- -- 91
2019-11-16 12:00:00 6.2 16 Sudoeste 51 Sudoeste 3.6 -- -- 90
2019-11-16 11:00:00 6.7 12 Sudoeste 38 Sudoeste 2.2 -- -- 89
2019-11-16 10:00:00 7.1 14 Sudoeste 37 Oeste 2 -- -- 86
2019-11-16 09:00:00 7.7 12 Sudoeste 25 Sur 0 -- -- 76
2019-11-16 08:00:00 7 10 Sudoeste 23 Oeste 0 -- -- 77
2019-11-16 07:00:00 5.2 7 Oeste 23 Sudoeste 0 -- -- 85
2019-11-16 06:00:00 6.5 9 Sudoeste 24 Sudoeste 0 -- -- 79
2019-11-16 05:00:00 6.7 9 Sudoeste 29 Sudoeste 0 -- -- 79
2019-11-16 04:00:00 6.6 9 Sudoeste 27 Sur 0.4 -- -- 83
2019-11-16 03:00:00 6.8 12 Sudoeste 28 Sudoeste 0 -- -- 82
2019-11-16 02:00:00 6.6 10 Sudoeste 27 Sur 0 -- -- 85
2019-11-16 01:00:00 5.9 11 Sudoeste 22 Sur 0 -- -- 88
2019-11-16 00:00:00 5.6 9 Sudoeste 23 Sur 0 -- -- 88